This is the latest recevied weather packets stored in our database for station/object OK1FET-5. If no packets are shown the sender has not sent any weather packets the latest 10 day(s).
| Time | Temp. | Humidity | Pressure | Rain* | Wind** | Luminosity | Snow |
|---|---|---|---|---|---|---|---|
| 1787833030 | 27.78° C | 42% | 1019.3 hPa | - | - | - | - |
| 1787832434 | 28.33° C | 42% | 1019.5 hPa | - | - | - | - |
| 1787831243 | 28.33° C | 40% | 1019.6 hPa | - | - | - | - |
| 1787830647 | 27.78° C | 41% | 1019.8 hPa | - | - | - | - |
| 1787830051 | 25.56° C | 46% | 1019.9 hPa | - | - | - | - |
| 1787829456 | 25.56° C | 46% | 1020 hPa | - | - | - | - |
| 1787828860 | 26.67° C | 45% | 1020.1 hPa | - | - | - | - |
| 1787828264 | 26.67° C | 45% | 1020.2 hPa | - | - | - | - |
| 1787827668 | 26.11° C | 47% | 1020.3 hPa | - | - | - | - |
| 1787827072 | 26.11° C | 46% | 1020.4 hPa | - | - | - | - |
| 1787825881 | 26.67° C | 45% | 1020.4 hPa | - | - | - | - |
| 1787825285 | 24.44° C | 50% | 1020.4 hPa | - | - | - | - |
| 1787824689 | 24.44° C | 51% | 1020.6 hPa | - | - | - | - |
| 1787824093 | 26.11° C | 47% | 1020.6 hPa | - | - | - | - |
| 1787823498 | 23.89° C | 51% | 1020.7 hPa | - | - | - | - |
| 1787822905 | 23.89° C | 51% | 1020.7 hPa | - | - | - | - |
| 1787822306 | 25° C | 50% | 1021 hPa | - | - | - | - |
| 1787821710 | 25° C | 49% | 1021 hPa | - | - | - | - |
| 1787821115 | 23.89° C | 52% | 1021 hPa | - | - | - | - |
| 1787819923 | 23.89° C | 52% | 1021.2 hPa | - | - | - | - |
| 1787819327 | 22.78° C | 55% | 1021.1 hPa | - | - | - | - |
| 1787818732 | 23.33° C | 53% | 1021.1 hPa | - | - | - | - |
| 1787818135 | 22.22° C | 55% | 1021 hPa | - | - | - | - |
| 1787817540 | 22.22° C | 55% | 1021.2 hPa | - | - | - | - |
| 1787816944 | 21.11° C | 58% | 1021.2 hPa | - | - | - | - |
* Rain since midnight (hover to see other rain measurements)
** Current wind speed in m/s (hover to see current wind gust speed)